• Join FlightAware (Why Join?)
  • Login
  • US Flag 
05:19AM EDT


 

Airport Tracker/Info


-or-


 

Live Flight TrackerFlight Track Log ✈ N693C ✈ 23-Dec-2013 ✈ KMQY - KRDU

Flight Track Log - Related Links

Times and Time Zones

All times are in EST time to prevent confusion due to time zone crossing. See the N693C flight status page for this flight to view local times or setup timezone preferences in your user account.

Time Position Orientation Groundspeed Altitude Reporting Facility
EST Latitude Longitude Course Direction KTS MPH feet Rate Location/Type
01:52PM 36.0167 -86.5167 90° East 76 87 900  Level Nashville TRACON
01:52PM 36.0167 -86.5000 90° East 93 107 1,500 1,200 Climbing Nashville TRACON
01:53PM 36.0167 -86.4667 90° East 117 135 2,700 1,140 Climbing Nashville TRACON
01:54PM 36.0103 -86.4547 123° Southeast 107 123 3,200 1,080 Climbing Memphis Center
01:55PM 36.0069 -86.4133 96° East 117 135 4,400 1,200 Climbing Memphis Center
01:56PM 35.9997 -86.3683 101° East 114 131 5,700 1,020 Climbing Memphis Center
01:57PM 35.9953 -86.3297 98° East 113 130 6,600 840 Climbing Memphis Center
01:58PM 35.9919 -86.2897 96° East 116 133 7,500 780 Climbing Memphis Center
01:59PM 35.9897 -86.2478 94° East 120 138 8,300 720 Climbing Memphis Center
02:00PM 35.9900 -86.2053 90° East 122 140 9,100 660 Climbing Memphis Center
02:01PM 35.9922 -86.1603 86° East 128 147 9,700 600 Climbing Memphis Center
02:02PM 35.9961 -86.1128 84° East 135 155 10,400 540 Climbing Memphis Center
02:03PM 36.0006 -86.0606 84° East 147 169 10,900 240 Climbing Memphis Center
02:04PM 36.0044 -86.0017 85° East 166 191 10,900  Level Memphis Center
02:05PM 35.9992 -85.9272 95° East 184 212 10,900  Level Memphis Center
02:06PM 35.9833 -85.8681 108° East 181 208 10,900 -60 Level Memphis Center
02:08PM 35.9746 -85.7728 96° East  Level FlightAware Approximate
02:08PM 35.9658 -85.7353 96° East 187 215 10,800  Level Memphis Center
02:09PM 35.9661 -85.6697 90° East 190 219 10,800  Level Memphis Center
02:10PM 35.9647 -85.6025 91° East 195 224 10,800  Level Memphis Center
02:11PM 35.9633 -85.5653 93° East 196 226 10,800  Level Atlanta Center
02:12PM 35.9600 -85.4983 94° East 191 220 10,800  Level Atlanta Center
02:13PM 35.9586 -85.4317 91° East 191 220 10,900  Climbing Atlanta Center
02:14PM 35.9572 -85.3650 91° East 191 220 10,900  Level Atlanta Center
02:15PM 35.9558 -85.3008 92° East 191 220 10,900  Level Atlanta Center
02:16PM 35.9525 -85.2342 94° East 191 220 10,900  Level Atlanta Center
02:17PM 35.9508 -85.1675 92° East 197 227 11,000  Climbing Atlanta Center
02:18PM 35.9494 -85.0981 91° East 197 227 11,000  Level Atlanta Center
02:19PM 35.9458 -85.0364 94° East 197 227 11,000  Level Atlanta Center
02:20PM 35.9442 -84.9697 92° East 197 227 11,000  Level Atlanta Center
02:21PM 35.9425 -84.9031 92° East 197 227 11,000  Level Atlanta Center
02:22PM 35.9411 -84.8339 91° East 197 227 11,000  Level Atlanta Center
02:23PM 35.9372 -84.7644 94° East 197 227 11,000  Level Atlanta Center
02:24PM 35.9356 -84.6953 92° East 197 227 11,000  Level Atlanta Center
02:25PM 35.9339 -84.6286 92° East 197 227 11,000  Level Atlanta Center
02:26PM 35.9300 -84.5594 94° East 197 227 11,000  Level Atlanta Center
02:27PM 35.9281 -84.4900 92° East 197 227 11,000  Level Atlanta Center
02:28PM 35.9264 -84.4183 92° East 197 227 11,000  Level Atlanta Center
02:29PM 35.9222 -84.3489 94° East 197 227 11,000  Level Atlanta Center
02:30PM 35.9203 -84.2719 92° East 197 227 11,000  Level Atlanta Center
02:31PM 35.9164 -84.2053 94° East 197 227 11,000  Level Atlanta Center
02:32PM 35.9144 -84.1361 92° East 197 227 11,000  Level Atlanta Center
02:33PM 35.9122 -84.0694 92° East 197 227 11,000  Level Atlanta Center
02:34PM 35.9081 -84.0003 94° East 197 227 11,000  Level Atlanta Center
02:35PM 35.9061 -83.9336 92° East 197 227 11,000  Level Atlanta Center
02:36PM 35.8997 -83.8644 96° East 197 227 11,000  Level Atlanta Center
02:37PM 35.8911 -83.7978 99° East 197 227 11,000  Level Atlanta Center
02:38PM 35.8828 -83.7339 99° East 197 227 11,000  Level Atlanta Center
02:39PM 35.8742 -83.6672 99° East 197 227 11,000  Level Atlanta Center
02:40PM 35.8656 -83.6006 99° East 197 227 11,000  Level Atlanta Center
02:41PM 35.8569 -83.5339 99° East 197 227 11,000  Level Atlanta Center
02:42PM 35.8464 -83.4675 101° East 197 227 11,000  Level Atlanta Center
02:43PM 35.8481 -83.3983 88° East 197 227 11,000  Level Atlanta Center
02:44PM 35.8561 -83.3289 82° East 197 227 11,000  Level Atlanta Center
02:45PM 35.8639 -83.2572 82° East 197 227 11,000  Level Atlanta Center
02:46PM 35.8675 -83.1906 86° East 206 237 11,000  Level Atlanta Center
02:47PM 35.8714 -83.1214 86° East 206 237 11,000  Level Atlanta Center
02:48PM 35.8769 -83.0494 85° East 206 237 11,000  Level Atlanta Center
02:49PM 35.8828 -82.9803 84° East 206 237 11,000  Level Atlanta Center
02:50PM 35.8861 -82.9083 87° East 206 237 11,000  Level Atlanta Center
02:51PM 35.8917 -82.8367 85° East 200 230 11,000  Level Atlanta Center
02:52PM 35.8953 -82.7672 86° East 200 230 11,000  Level Atlanta Center
02:53PM 35.9008 -82.6981 84° East 200 230 11,100  Climbing Atlanta Center
02:54PM 35.9042 -82.6261 87° East 200 230 11,100  Level Atlanta Center
02:55PM 35.9094 -82.5544 85° East 200 230 11,100  Level Atlanta Center
02:56PM 35.9150 -82.4825 85° East 200 230 11,100  Level Atlanta Center
02:57PM 35.9203 -82.4131 85° East 200 230 11,100  Level Atlanta Center
02:58PM 35.9214 -82.3439 89° East 195 224 11,100  Level Atlanta Center
02:59PM 35.9267 -82.2719 85° East 200 230 11,100  Level Atlanta Center
03:00PM 35.9358 -82.1922 82° East 200 230 11,100  Level Atlanta Center
03:01PM 35.9369 -82.1231 89° East 200 230 11,100  Level Atlanta Center
03:02PM 35.9419 -82.0511 85° East 200 230 11,100  Level Atlanta Center
03:03PM 35.9472 -81.9817 85° East 200 230 11,100  Level Atlanta Center
03:04PM 35.9500 -81.9097 87° East 200 230 11,100  Level Atlanta Center
03:05PM 35.9553 -81.8403 85° East 200 230 11,100  Level Atlanta Center
03:06PM 35.9581 -81.7711 87° East 200 230 11,100  Level Atlanta Center
03:07PM 35.9589 -81.7017 89° East 195 224 11,100  Level Atlanta Center
03:08PM 35.9658 -81.6272 83° East 200 230 11,100 -120 Level Atlanta Center
03:09PM 35.9686 -81.5578 87° East 200 230 10,900  Descending Atlanta Center
03:10PM 35.9733 -81.4858 85° East 200 230 11,100 60 Climbing Atlanta Center
03:11PM 35.9781 -81.4139 85° East 200 230 11,100  Level Atlanta Center
03:12PM 35.9828 -81.3444 85° East 200 230 11,100  Level Atlanta Center
03:13PM 35.9853 -81.2697 88° East 200 230 11,100 -120 Level Atlanta Center
03:14PM 35.9883 -81.2133 86° East 200 230 10,900 -120 Descending Atlanta Center
03:15PM 35.9906 -81.1361 88° East 200 230 10,900  Level Atlanta Center
03:16PM 35.9972 -81.0642 83° East 200 230 10,900  Level Atlanta Center
03:17PM 35.9997 -80.9947 87° East 200 230 10,900  Level Atlanta Center
03:18PM 36.0022 -80.9253 87° East 200 230 10,900  Level Atlanta Center
03:19PM 36.0042 -80.8431 88° East 200 230 10,900  Level Atlanta Center
03:20PM 36.0089 -80.7839 84° East 200 230 10,900  Level Atlanta Center
03:21PM 36.0133 -80.7144 85° East 195 224 10,900  Level Atlanta Center
03:22PM 36.0156 -80.6475 88° East 195 224 11,000  Climbing Atlanta Center
03:23PM 36.0178 -80.5731 88° East 200 230 11,000  Level Atlanta Center
03:24PM 36.0136 -80.5039 94° East 200 230 11,000  Level Atlanta Center
03:25PM 36.0097 -80.4372 94° East 194 223 11,000  Level Atlanta Center
03:26PM 36.0056 -80.3683 94° East 194 223 11,000  Level Atlanta Center
03:27PM 35.9992 -80.2967 96° East 194 223 11,000 -420 Level Atlanta Center
03:35PM 35.9525 -79.6819 90° East 210 242 7,200 -420 Descending Washington Center
03:36PM 36.0039 -79.7530 104° East  Level FlightAware Approximate
03:36PM 35.9467 -79.6150 96° East 202 232 7,000  Level Washington Center
03:37PM 35.9979 -79.6910 96° East  Level FlightAware Approximate
03:37PM 35.9400 -79.5608 99° East 183 211 7,000  Level Washington Center
03:38PM 35.9927 -79.6287 96° East  Level FlightAware Approximate
03:38PM 35.9397 -79.5044 90° East 175 201 7,000  Level Washington Center
03:39PM 35.9875 -79.5664 96° East  Level FlightAware Approximate
03:39PM 35.9333 -79.4450 98° East 173 199 7,000  Level Washington Center
03:40PM 35.9803 -79.5046 107° East  Level FlightAware Approximate
03:40PM 35.9056 -79.3975 126° Southeast 168 193 6,700  Level Washington Center
03:41PM 35.9667 -79.4446 90° East  Level FlightAware Approximate
03:41PM 35.8844 -79.3400 114° Southeast 184 212 6,100  Level Washington Center
03:42PM 35.8592 -79.2878 121° Southeast 188 216 5,400 -720 Descending Washington Center
03:43PM 35.8336 -79.2303 119° Southeast 185 213 4,700 -780 Descending Washington Center
03:44PM 35.8083 -79.1725 118° Southeast 185 213 3,900 -420 Descending Washington Center
03:45PM 35.7869 -79.1206 117° Southeast 169 194 3,900 -360 Level Washington Center
03:46PM 35.7633 -79.0681 119° Southeast 173 199 3,200 -480 Descending Washington Center
03:47PM 35.7506 -79.0086 105° East 179 206 3,000 -120 Descending Washington Center
03:48PM 35.7564 -78.9450 84° East 162 186 3,000 -60 Level Washington Center
03:49PM 35.7889 -78.9106 41° Northeast 161 185 2,900 -540 Descending Washington Center
03:50PM 35.8211 -78.8683 47° Northeast 165 190 2,000 -840 Descending Washington Center
03:51PM 35.8450 -78.8386 45° Northeast 118 136 1,200 -660 Descending Washington Center
03:52PM 35.8644 -78.8164 43° Northeast 84 97 700 -540 Descending Washington Center
03:54PM 35.8667 -78.7833 73° East  Level FlightAware Approximate
04:01PM 35.8776 -78.7875 73° East  Level Estimated